sensor_id;sensor_type;location;lat;lon;timestamp;temperature;humidity
9497;DHT22;4786;51.270;4.456;2022-11-23T00:00:57;9.70;99.90
9497;DHT22;4786;51.270;4.456;2022-11-23T00:03:22;9.80;99.90
9497;DHT22;4786;51.270;4.456;2022-11-23T00:05:48;9.70;99.90
9497;DHT22;4786;51.270;4.456;2022-11-23T00:08:14;9.70;99.90
9497;DHT22;4786;51.270;4.456;2022-11-23T00:10:40;9.60;99.90
9497;DHT22;4786;51.270;4.456;2022-11-23T00:13:06;9.60;99.90
9497;DHT22;4786;51.270;4.456;2022-11-23T00:15:32;9.60;99.90
9497;DHT22;4786;51.270;4.456;2022-11-23T00:17:58;9.60;99.90
9497;DHT22;4786;51.270;4.456;2022-11-23T00:20:27;9.70;99.90
9497;DHT22;4786;51.270;4.456;2022-11-23T00:22:52;9.70;99.90
9497;DHT22;4786;51.270;4.456;2022-11-23T00:25:18;9.70;99.90
9497;DHT22;4786;51.270;4.456;2022-11-23T00:27:44;9.70;99.90
9497;DHT22;4786;51.270;4.456;2022-11-23T00:30:10;9.70;99.90
9497;DHT22;4786;51.270;4.456;2022-11-23T00:32:36;9.70;99.90
9497;DHT22;4786;51.270;4.456;2022-11-23T00:35:02;9.70;99.90
9497;DHT22;4786;51.270;4.456;2022-11-23T00:37:28;9.70;99.90
9497;DHT22;4786;51.270;4.456;2022-11-23T00:39:54;9.70;99.90
9497;DHT22;4786;51.270;4.456;2022-11-23T00:42:21;9.80;99.90
9497;DHT22;4786;51.270;4.456;2022-11-23T00:44:46;9.80;99.90
9497;DHT22;4786;51.270;4.456;2022-11-23T00:47:12;9.70;99.90
9497;DHT22;4786;51.270;4.456;2022-11-23T00:49:38;9.80;99.90
9497;DHT22;4786;51.270;4.456;2022-11-23T00:52:04;9.80;99.90
9497;DHT22;4786;51.270;4.456;2022-11-23T00:54:29;9.80;99.90
9497;DHT22;4786;51.270;4.456;2022-11-23T00:56:55;9.80;99.90
9497;DHT22;4786;51.270;4.456;2022-11-23T00:59:21;9.80;99.90
9497;DHT22;4786;51.270;4.456;2022-11-23T01:01:48;9.70;99.90
9497;DHT22;4786;51.270;4.456;2022-11-23T01:04:13;9.90;99.90
9497;DHT22;4786;51.270;4.456;2022-11-23T01:06:40;9.80;99.90
9497;DHT22;4786;51.270;4.456;2022-11-23T01:09:10;9.80;99.90
9497;DHT22;4786;51.270;4.456;2022-11-23T01:11:36;9.70;99.90
9497;DHT22;4786;51.270;4.456;2022-11-23T01:14:02;9.80;99.90
9497;DHT22;4786;51.270;4.456;2022-11-23T01:16:31;9.90;99.90
9497;DHT22;4786;51.270;4.456;2022-11-23T01:19:00;9.80;99.90
9497;DHT22;4786;51.270;4.456;2022-11-23T01:21:29;9.80;99.90
9497;DHT22;4786;51.270;4.456;2022-11-23T01:23:55;9.80;99.90
9497;DHT22;4786;51.270;4.456;2022-11-23T01:26:21;9.80;99.90
9497;DHT22;4786;51.270;4.456;2022-11-23T01:28:48;9.80;99.90
9497;DHT22;4786;51.270;4.456;2022-11-23T01:31:19;9.90;99.90
9497;DHT22;4786;51.270;4.456;2022-11-23T01:33:46;9.80;99.90
9497;DHT22;4786;51.270;4.456;2022-11-23T01:36:16;9.70;99.90
9497;DHT22;4786;51.270;4.456;2022-11-23T01:38:43;9.90;99.90
9497;DHT22;4786;51.270;4.456;2022-11-23T01:41:12;9.90;99.90
9497;DHT22;4786;51.270;4.456;2022-11-23T01:43:39;9.80;99.90
9497;DHT22;4786;51.270;4.456;2022-11-23T01:46:05;9.80;99.90
9497;DHT22;4786;51.270;4.456;2022-11-23T01:48:33;9.80;99.90
9497;DHT22;4786;51.270;4.456;2022-11-23T01:51:01;9.80;99.90
9497;DHT22;4786;51.270;4.456;2022-11-23T01:53:31;9.80;99.90
9497;DHT22;4786;51.270;4.456;2022-11-23T01:56:00;9.80;99.90
9497;DHT22;4786;51.270;4.456;2022-11-23T01:58:29;9.80;99.90
9497;DHT22;4786;51.270;4.456;2022-11-23T02:00:57;9.80;99.90
9497;DHT22;4786;51.270;4.456;2022-11-23T02:03:23;9.80;99.90
9497;DHT22;4786;51.270;4.456;2022-11-23T02:05:52;9.80;99.90
9497;DHT22;4786;51.270;4.456;2022-11-23T02:08:24;9.80;99.90
9497;DHT22;4786;51.270;4.456;2022-11-23T02:10:51;9.70;99.90
9497;DHT22;4786;51.270;4.456;2022-11-23T02:13:17;9.70;99.90
9497;DHT22;4786;51.270;4.456;2022-11-23T02:15:43;9.70;99.90
9497;DHT22;4786;51.270;4.456;2022-11-23T02:18:14;9.80;99.90
9497;DHT22;4786;51.270;4.456;2022-11-23T02:20:42;9.70;99.90
9497;DHT22;4786;51.270;4.456;2022-11-23T02:23:29;9.70;99.90
9497;DHT22;4786;51.270;4.456;2022-11-23T02:26:12;9.70;99.90
9497;DHT22;4786;51.270;4.456;2022-11-23T02:28:43;9.70;99.90
9497;DHT22;4786;51.270;4.456;2022-11-23T02:31:09;9.70;99.90
9497;DHT22;4786;51.270;4.456;2022-11-23T02:33:39;9.80;99.90
9497;DHT22;4786;51.270;4.456;2022-11-23T02:36:43;9.70;99.90
9497;DHT22;4786;51.270;4.456;2022-11-23T02:39:16;9.70;99.90
9497;DHT22;4786;51.270;4.456;2022-11-23T02:41:46;9.70;99.90
9497;DHT22;4786;51.270;4.456;2022-11-23T02:47:05;9.70;99.90
9497;DHT22;4786;51.270;4.456;2022-11-23T02:49:32;9.70;99.90
9497;DHT22;4786;51.270;4.456;2022-11-23T02:51:59;9.80;99.90
9497;DHT22;4786;51.270;4.456;2022-11-23T02:54:26;9.80;99.90
9497;DHT22;4786;51.270;4.456;2022-11-23T02:56:52;9.80;99.90
9497;DHT22;4786;51.270;4.456;2022-11-23T02:59:18;9.70;99.90
9497;DHT22;4786;51.270;4.456;2022-11-23T03:01:45;9.70;99.90
9497;DHT22;4786;51.270;4.456;2022-11-23T03:04:11;9.70;99.90
9497;DHT22;4786;51.270;4.456;2022-11-23T03:06:37;9.80;99.90
9497;DHT22;4786;51.270;4.456;2022-11-23T03:09:03;9.70;99.90
9497;DHT22;4786;51.270;4.456;2022-11-23T03:11:29;9.80;99.90
9497;DHT22;4786;51.270;4.456;2022-11-23T03:13:54;9.60;99.90
9497;DHT22;4786;51.270;4.456;2022-11-23T03:16:20;9.70;99.90
9497;DHT22;4786;51.270;4.456;2022-11-23T03:18:46;9.70;99.90
9497;DHT22;4786;51.270;4.456;2022-11-23T03:21:12;9.80;99.90
9497;DHT22;4786;51.270;4.456;2022-11-23T03:23:37;9.60;99.90
9497;DHT22;4786;51.270;4.456;2022-11-23T03:26:03;9.60;99.90
9497;DHT22;4786;51.270;4.456;2022-11-23T03:28:29;9.60;99.90
9497;DHT22;4786;51.270;4.456;2022-11-23T03:30:55;9.60;99.90
9497;DHT22;4786;51.270;4.456;2022-11-23T03:33:21;9.60;99.90
9497;DHT22;4786;51.270;4.456;2022-11-23T03:35:47;9.60;99.90
9497;DHT22;4786;51.270;4.456;2022-11-23T03:38:13;9.50;99.90
9497;DHT22;4786;51.270;4.456;2022-11-23T03:40:39;9.50;99.90
9497;DHT22;4786;51.270;4.456;2022-11-23T03:43:05;9.60;99.90
9497;DHT22;4786;51.270;4.456;2022-11-23T03:45:31;9.50;99.90
9497;DHT22;4786;51.270;4.456;2022-11-23T03:47:57;9.60;99.90
9497;DHT22;4786;51.270;4.456;2022-11-23T03:50:23;9.40;99.90
9497;DHT22;4786;51.270;4.456;2022-11-23T03:52:49;9.30;99.90
9497;DHT22;4786;51.270;4.456;2022-11-23T03:55:15;9.30;99.90
9497;DHT22;4786;51.270;4.456;2022-11-23T03:57:41;9.20;99.90
9497;DHT22;4786;51.270;4.456;2022-11-23T04:00:08;9.20;99.90
9497;DHT22;4786;51.270;4.456;2022-11-23T04:02:34;9.20;99.90
9497;DHT22;4786;51.270;4.456;2022-11-23T04:05:00;9.40;99.90
9497;DHT22;4786;51.270;4.456;2022-11-23T04:07:26;9.30;99.90
9497;DHT22;4786;51.270;4.456;2022-11-23T04:09:52;9.20;99.90
9497;DHT22;4786;51.270;4.456;2022-11-23T04:12:18;9.20;99.90
9497;DHT22;4786;51.270;4.456;2022-11-23T04:14:43;9.30;99.90
9497;DHT22;4786;51.270;4.456;2022-11-23T04:17:09;9.20;99.90
9497;DHT22;4786;51.270;4.456;2022-11-23T04:19:35;9.30;99.90
9497;DHT22;4786;51.270;4.456;2022-11-23T04:22:00;9.30;99.90
9497;DHT22;4786;51.270;4.456;2022-11-23T04:24:26;9.30;99.90
9497;DHT22;4786;51.270;4.456;2022-11-23T04:26:52;9.30;99.90
9497;DHT22;4786;51.270;4.456;2022-11-23T04:29:18;9.30;99.90
9497;DHT22;4786;51.270;4.456;2022-11-23T04:31:44;9.30;99.90
9497;DHT22;4786;51.270;4.456;2022-11-23T04:34:09;9.10;99.90
9497;DHT22;4786;51.270;4.456;2022-11-23T04:36:35;9.30;99.90
9497;DHT22;4786;51.270;4.456;2022-11-23T04:39:01;9.40;99.90
9497;DHT22;4786;51.270;4.456;2022-11-23T04:41:28;9.30;99.90
9497;DHT22;4786;51.270;4.456;2022-11-23T04:43:54;9.50;99.90
9497;DHT22;4786;51.270;4.456;2022-11-23T04:46:20;9.40;99.90
9497;DHT22;4786;51.270;4.456;2022-11-23T04:48:46;9.30;99.90
9497;DHT22;4786;51.270;4.456;2022-11-23T04:51:12;9.30;99.90
9497;DHT22;4786;51.270;4.456;2022-11-23T04:53:38;9.30;99.90
9497;DHT22;4786;51.270;4.456;2022-11-23T04:56:04;9.30;99.90
9497;DHT22;4786;51.270;4.456;2022-11-23T04:58:31;9.30;99.90
9497;DHT22;4786;51.270;4.456;2022-11-23T05:00:57;9.10;99.90
9497;DHT22;4786;51.270;4.456;2022-11-23T05:03:24;9.20;99.90
9497;DHT22;4786;51.270;4.456;2022-11-23T05:05:49;9.20;99.90
9497;DHT22;4786;51.270;4.456;2022-11-23T05:08:15;9.20;99.90
9497;DHT22;4786;51.270;4.456;2022-11-23T05:10:41;9.20;99.90
9497;DHT22;4786;51.270;4.456;2022-11-23T05:13:06;9.20;99.90
9497;DHT22;4786;51.270;4.456;2022-11-23T05:15:32;9.20;99.90
9497;DHT22;4786;51.270;4.456;2022-11-23T05:18:05;9.20;99.90
9497;DHT22;4786;51.270;4.456;2022-11-23T05:20:31;9.20;99.90
9497;DHT22;4786;51.270;4.456;2022-11-23T05:22:57;9.10;99.90
9497;DHT22;4786;51.270;4.456;2022-11-23T05:25:23;9.00;99.90
9497;DHT22;4786;51.270;4.456;2022-11-23T05:27:49;9.30;99.90
9497;DHT22;4786;51.270;4.456;2022-11-23T05:30:15;9.10;99.90
9497;DHT22;4786;51.270;4.456;2022-11-23T05:32:41;9.10;99.90
9497;DHT22;4786;51.270;4.456;2022-11-23T05:35:08;9.00;99.90
9497;DHT22;4786;51.270;4.456;2022-11-23T05:37:34;9.00;99.90
9497;DHT22;4786;51.270;4.456;2022-11-23T05:40:00;9.00;99.90
9497;DHT22;4786;51.270;4.456;2022-11-23T05:42:27;8.90;99.90
9497;DHT22;4786;51.270;4.456;2022-11-23T05:44:52;9.10;99.90
9497;DHT22;4786;51.270;4.456;2022-11-23T05:47:18;8.90;99.90
9497;DHT22;4786;51.270;4.456;2022-11-23T05:49:44;8.90;99.90
9497;DHT22;4786;51.270;4.456;2022-11-23T05:52:10;8.90;99.90
9497;DHT22;4786;51.270;4.456;2022-11-23T05:54:36;8.80;99.90
9497;DHT22;4786;51.270;4.456;2022-11-23T05:57:02;9.10;99.90
9497;DHT22;4786;51.270;4.456;2022-11-23T05:59:28;8.90;99.90
9497;DHT22;4786;51.270;4.456;2022-11-23T06:01:54;8.90;99.90
9497;DHT22;4786;51.270;4.456;2022-11-23T06:04:20;8.90;99.90
9497;DHT22;4786;51.270;4.456;2022-11-23T06:06:46;8.90;99.90
9497;DHT22;4786;51.270;4.456;2022-11-23T06:09:11;8.90;99.90
9497;DHT22;4786;51.270;4.456;2022-11-23T06:11:37;8.90;99.90
9497;DHT22;4786;51.270;4.456;2022-11-23T06:14:03;9.00;99.90
9497;DHT22;4786;51.270;4.456;2022-11-23T06:16:28;9.10;99.90
9497;DHT22;4786;51.270;4.456;2022-11-23T06:18:54;9.10;99.90
9497;DHT22;4786;51.270;4.456;2022-11-23T06:21:20;8.90;99.90
9497;DHT22;4786;51.270;4.456;2022-11-23T06:23:46;9.00;99.90
9497;DHT22;4786;51.270;4.456;2022-11-23T06:26:13;9.00;99.90
9497;DHT22;4786;51.270;4.456;2022-11-23T06:28:39;8.90;99.90
9497;DHT22;4786;51.270;4.456;2022-11-23T06:31:06;8.80;99.90
9497;DHT22;4786;51.270;4.456;2022-11-23T06:33:34;8.70;99.90
9497;DHT22;4786;51.270;4.456;2022-11-23T06:36:01;8.90;99.90
9497;DHT22;4786;51.270;4.456;2022-11-23T06:38:27;8.90;99.90
9497;DHT22;4786;51.270;4.456;2022-11-23T06:41:00;8.60;99.90
9497;DHT22;4786;51.270;4.456;2022-11-23T06:43:27;8.60;99.90
9497;DHT22;4786;51.270;4.456;2022-11-23T06:45:53;8.50;99.90
9497;DHT22;4786;51.270;4.456;2022-11-23T06:48:19;8.50;99.90
9497;DHT22;4786;51.270;4.456;2022-11-23T06:50:46;8.50;99.90
9497;DHT22;4786;51.270;4.456;2022-11-23T06:53:11;8.50;99.90
9497;DHT22;4786;51.270;4.456;2022-11-23T06:55:38;8.40;99.90
9497;DHT22;4786;51.270;4.456;2022-11-23T06:58:04;8.40;99.90
9497;DHT22;4786;51.270;4.456;2022-11-23T07:00:32;8.50;99.90
9497;DHT22;4786;51.270;4.456;2022-11-23T07:02:58;8.40;99.90
9497;DHT22;4786;51.270;4.456;2022-11-23T07:05:25;8.40;99.90
9497;DHT22;4786;51.270;4.456;2022-11-23T07:07:51;8.30;99.90
9497;DHT22;4786;51.270;4.456;2022-11-23T07:10:18;8.30;99.90
9497;DHT22;4786;51.270;4.456;2022-11-23T07:12:44;8.30;99.90
9497;DHT22;4786;51.270;4.456;2022-11-23T07:15:11;8.20;99.90
9497;DHT22;4786;51.270;4.456;2022-11-23T07:17:40;8.20;99.90
9497;DHT22;4786;51.270;4.456;2022-11-23T07:20:08;8.20;99.90
9497;DHT22;4786;51.270;4.456;2022-11-23T07:22:35;8.20;99.90
9497;DHT22;4786;51.270;4.456;2022-11-23T07:25:01;8.30;99.90
9497;DHT22;4786;51.270;4.456;2022-11-23T07:27:27;8.10;99.90
9497;DHT22;4786;51.270;4.456;2022-11-23T07:29:53;8.00;99.90
9497;DHT22;4786;51.270;4.456;2022-11-23T07:32:19;8.10;99.90
9497;DHT22;4786;51.270;4.456;2022-11-23T07:34:44;8.00;99.90
9497;DHT22;4786;51.270;4.456;2022-11-23T07:37:10;8.40;99.90
9497;DHT22;4786;51.270;4.456;2022-11-23T07:39:36;8.00;99.90
9497;DHT22;4786;51.270;4.456;2022-11-23T07:42:02;8.00;99.90
9497;DHT22;4786;51.270;4.456;2022-11-23T07:44:27;8.10;99.90
9497;DHT22;4786;51.270;4.456;2022-11-23T07:46:53;8.10;99.90
9497;DHT22;4786;51.270;4.456;2022-11-23T07:49:19;8.10;99.90
9497;DHT22;4786;51.270;4.456;2022-11-23T07:51:45;8.30;99.90
9497;DHT22;4786;51.270;4.456;2022-11-23T07:54:11;8.10;99.90
9497;DHT22;4786;51.270;4.456;2022-11-23T07:56:37;8.00;99.90
9497;DHT22;4786;51.270;4.456;2022-11-23T07:59:03;8.00;99.90
9497;DHT22;4786;51.270;4.456;2022-11-23T08:01:29;8.10;99.90
9497;DHT22;4786;51.270;4.456;2022-11-23T08:03:56;8.10;99.90
9497;DHT22;4786;51.270;4.456;2022-11-23T08:06:22;8.20;99.90
9497;DHT22;4786;51.270;4.456;2022-11-23T08:08:48;8.00;99.90
9497;DHT22;4786;51.270;4.456;2022-11-23T08:11:14;8.00;99.90
9497;DHT22;4786;51.270;4.456;2022-11-23T08:13:41;8.00;99.90
9497;DHT22;4786;51.270;4.456;2022-11-23T08:16:09;8.00;99.90
9497;DHT22;4786;51.270;4.456;2022-11-23T08:18:34;8.10;99.90
9497;DHT22;4786;51.270;4.456;2022-11-23T08:21:01;8.10;99.90
9497;DHT22;4786;51.270;4.456;2022-11-23T08:23:27;8.10;99.90
9497;DHT22;4786;51.270;4.456;2022-11-23T08:25:54;8.10;99.90
9497;DHT22;4786;51.270;4.456;2022-11-23T08:28:20;8.20;99.90
9497;DHT22;4786;51.270;4.456;2022-11-23T08:30:46;8.20;99.90
9497;DHT22;4786;51.270;4.456;2022-11-23T08:33:12;8.20;99.90
9497;DHT22;4786;51.270;4.456;2022-11-23T08:35:40;8.10;99.90
9497;DHT22;4786;51.270;4.456;2022-11-23T08:38:07;8.10;99.90
9497;DHT22;4786;51.270;4.456;2022-11-23T08:40:35;8.10;99.90
9497;DHT22;4786;51.270;4.456;2022-11-23T08:43:01;8.20;99.90
9497;DHT22;4786;51.270;4.456;2022-11-23T08:45:27;8.30;99.90
9497;DHT22;4786;51.270;4.456;2022-11-23T08:47:53;8.30;99.90
9497;DHT22;4786;51.270;4.456;2022-11-23T08:50:23;8.40;99.90
9497;DHT22;4786;51.270;4.456;2022-11-23T08:52:57;8.40;99.90
9497;DHT22;4786;51.270;4.456;2022-11-23T08:55:24;8.40;99.90
9497;DHT22;4786;51.270;4.456;2022-11-23T08:57:54;8.40;99.90
9497;DHT22;4786;51.270;4.456;2022-11-23T09:00:20;8.60;99.90
9497;DHT22;4786;51.270;4.456;2022-11-23T09:02:46;8.50;99.90
9497;DHT22;4786;51.270;4.456;2022-11-23T09:05:12;8.50;99.90
9497;DHT22;4786;51.270;4.456;2022-11-23T09:07:37;8.50;99.90
9497;DHT22;4786;51.270;4.456;2022-11-23T09:10:05;8.50;99.90
9497;DHT22;4786;51.270;4.456;2022-11-23T09:12:32;8.50;99.90
9497;DHT22;4786;51.270;4.456;2022-11-23T09:14:58;8.50;99.90
9497;DHT22;4786;51.270;4.456;2022-11-23T09:17:23;8.50;99.90
9497;DHT22;4786;51.270;4.456;2022-11-23T09:19:49;8.50;99.90
9497;DHT22;4786;51.270;4.456;2022-11-23T09:22:15;8.50;99.90
9497;DHT22;4786;51.270;4.456;2022-11-23T09:24:40;8.60;99.90
9497;DHT22;4786;51.270;4.456;2022-11-23T09:27:06;8.70;99.90
9497;DHT22;4786;51.270;4.456;2022-11-23T09:29:33;8.70;99.90
9497;DHT22;4786;51.270;4.456;2022-11-23T09:32:01;8.70;99.90
9497;DHT22;4786;51.270;4.456;2022-11-23T09:34:26;8.70;99.90
9497;DHT22;4786;51.270;4.456;2022-11-23T09:36:52;8.80;99.90
9497;DHT22;4786;51.270;4.456;2022-11-23T09:39:21;8.70;99.90
9497;DHT22;4786;51.270;4.456;2022-11-23T09:42:02;8.70;99.90
9497;DHT22;4786;51.270;4.456;2022-11-23T09:47:39;8.90;99.90
9497;DHT22;4786;51.270;4.456;2022-11-23T09:50:26;9.00;99.90
9497;DHT22;4786;51.270;4.456;2022-11-23T09:52:52;9.00;99.90
9497;DHT22;4786;51.270;4.456;2022-11-23T09:55:38;9.00;99.90
9497;DHT22;4786;51.270;4.456;2022-11-23T09:58:06;9.10;99.90
9497;DHT22;4786;51.270;4.456;2022-11-23T10:00:38;9.20;99.90
9497;DHT22;4786;51.270;4.456;2022-11-23T10:03:15;9.40;99.90
9497;DHT22;4786;51.270;4.456;2022-11-23T10:05:46;9.10;99.90
9497;DHT22;4786;51.270;4.456;2022-11-23T10:08:40;9.00;99.90
9497;DHT22;4786;51.270;4.456;2022-11-23T10:17:00;9.20;99.90
9497;DHT22;4786;51.270;4.456;2022-11-23T10:22:21;9.20;99.90
9497;DHT22;4786;51.270;4.456;2022-11-23T10:24:51;9.30;99.90
9497;DHT22;4786;51.270;4.456;2022-11-23T10:27:20;9.40;99.90
9497;DHT22;4786;51.270;4.456;2022-11-23T10:29:47;9.40;99.90
9497;DHT22;4786;51.270;4.456;2022-11-23T10:32:31;9.50;99.90
9497;DHT22;4786;51.270;4.456;2022-11-23T10:37:37;9.70;99.90
9497;DHT22;4786;51.270;4.456;2022-11-23T10:40:23;9.60;99.90
9497;DHT22;4786;51.270;4.456;2022-11-23T10:42:56;9.70;99.90
9497;DHT22;4786;51.270;4.456;2022-11-23T10:45:27;9.70;99.90
9497;DHT22;4786;51.270;4.456;2022-11-23T10:47:55;9.80;99.90
9497;DHT22;4786;51.270;4.456;2022-11-23T10:52:59;9.80;99.90
9497;DHT22;4786;51.270;4.456;2022-11-23T10:55:29;9.80;99.90
9497;DHT22;4786;51.270;4.456;2022-11-23T10:57:56;9.70;99.90
9497;DHT22;4786;51.270;4.456;2022-11-23T11:00:24;9.80;99.90
9497;DHT22;4786;51.270;4.456;2022-11-23T11:02:53;9.80;99.90
9497;DHT22;4786;51.270;4.456;2022-11-23T11:05:27;9.80;99.90
9497;DHT22;4786;51.270;4.456;2022-11-23T11:07:55;9.80;99.90
9497;DHT22;4786;51.270;4.456;2022-11-23T11:10:40;9.80;99.90
9497;DHT22;4786;51.270;4.456;2022-11-23T11:13:40;9.90;99.90
9497;DHT22;4786;51.270;4.456;2022-11-23T11:16:28;9.90;99.90
9497;DHT22;4786;51.270;4.456;2022-11-23T11:18:55;10.10;99.90
9497;DHT22;4786;51.270;4.456;2022-11-23T11:21:22;10.00;99.90
9497;DHT22;4786;51.270;4.456;2022-11-23T11:23:53;10.10;99.90
9497;DHT22;4786;51.270;4.456;2022-11-23T11:26:22;10.10;99.90
9497;DHT22;4786;51.270;4.456;2022-11-23T11:28:56;10.10;99.90
9497;DHT22;4786;51.270;4.456;2022-11-23T11:34:12;10.20;99.90
9497;DHT22;4786;51.270;4.456;2022-11-23T11:37:10;10.30;99.90
9497;DHT22;4786;51.270;4.456;2022-11-23T11:39:47;10.30;99.90
9497;DHT22;4786;51.270;4.456;2022-11-23T11:42:19;10.40;99.90
9497;DHT22;4786;51.270;4.456;2022-11-23T11:44:46;10.40;99.90
9497;DHT22;4786;51.270;4.456;2022-11-23T11:47:27;10.40;99.90
9497;DHT22;4786;51.270;4.456;2022-11-23T11:49:57;10.40;99.90
9497;DHT22;4786;51.270;4.456;2022-11-23T11:52:27;10.40;99.90
9497;DHT22;4786;51.270;4.456;2022-11-23T11:55:01;10.40;99.90
9497;DHT22;4786;51.270;4.456;2022-11-23T11:57:36;10.40;99.90
9497;DHT22;4786;51.270;4.456;2022-11-23T12:00:09;10.40;99.90
9497;DHT22;4786;51.270;4.456;2022-11-23T12:03:00;10.50;99.90
9497;DHT22;4786;51.270;4.456;2022-11-23T12:05:47;10.50;99.90
9497;DHT22;4786;51.270;4.456;2022-11-23T12:08:21;10.50;99.90
9497;DHT22;4786;51.270;4.456;2022-11-23T12:10:55;10.50;99.90
9497;DHT22;4786;51.270;4.456;2022-11-23T12:13:26;10.50;99.90
9497;DHT22;4786;51.270;4.456;2022-11-23T12:16:13;10.50;99.90
9497;DHT22;4786;51.270;4.456;2022-11-23T12:28:14;10.50;99.90
9497;DHT22;4786;51.270;4.456;2022-11-23T12:38:58;10.40;99.90
9497;DHT22;4786;51.270;4.456;2022-11-23T12:47:58;10.30;99.90
9497;DHT22;4786;51.270;4.456;2022-11-23T12:58:57;10.20;99.90
9497;DHT22;4786;51.270;4.456;2022-11-23T13:01:35;10.00;99.90
9497;DHT22;4786;51.270;4.456;2022-11-23T13:12:17;10.00;99.90
9497;DHT22;4786;51.270;4.456;2022-11-23T13:22:56;9.90;99.90
9497;DHT22;4786;51.270;4.456;2022-11-23T13:30:25;9.90;99.90
9497;DHT22;4786;51.270;4.456;2022-11-23T13:32:56;9.90;99.90
9497;DHT22;4786;51.270;4.456;2022-11-23T13:40:29;9.80;99.90
9497;DHT22;4786;51.270;4.456;2022-11-23T13:42:59;9.80;99.90
9497;DHT22;4786;51.270;4.456;2022-11-23T13:45:31;9.80;99.90
9497;DHT22;4786;51.270;4.456;2022-11-23T13:50:37;9.70;99.90
9497;DHT22;4786;51.270;4.456;2022-11-23T13:55:44;9.70;99.90
9497;DHT22;4786;51.270;4.456;2022-11-23T14:03:50;9.70;99.90
9497;DHT22;4786;51.270;4.456;2022-11-23T14:06:43;9.70;99.90
9497;DHT22;4786;51.270;4.456;2022-11-23T14:12:36;9.70;99.90
9497;DHT22;4786;51.270;4.456;2022-11-23T14:32:07;9.50;99.90
9497;DHT22;4786;51.270;4.456;2022-11-23T14:43:00;9.40;99.90
9497;DHT22;4786;51.270;4.456;2022-11-23T14:45:31;9.40;99.90
9497;DHT22;4786;51.270;4.456;2022-11-23T14:48:30;9.40;99.90
9497;DHT22;4786;51.270;4.456;2022-11-23T14:51:12;9.40;99.90
9497;DHT22;4786;51.270;4.456;2022-11-23T14:53:41;9.40;99.90
9497;DHT22;4786;51.270;4.456;2022-11-23T14:58:48;9.40;99.90
9497;DHT22;4786;51.270;4.456;2022-11-23T15:01:19;9.50;99.90
9497;DHT22;4786;51.270;4.456;2022-11-23T15:03:58;9.50;99.90
9497;DHT22;4786;51.270;4.456;2022-11-23T15:06:31;9.50;99.90
9497;DHT22;4786;51.270;4.456;2022-11-23T15:11:36;9.50;99.90
9497;DHT22;4786;51.270;4.456;2022-11-23T15:14:18;9.50;99.90
9497;DHT22;4786;51.270;4.456;2022-11-23T15:16:44;9.60;99.90
9497;DHT22;4786;51.270;4.456;2022-11-23T15:19:36;9.50;99.90
9497;DHT22;4786;51.270;4.456;2022-11-23T15:22:02;9.50;99.90
9497;DHT22;4786;51.270;4.456;2022-11-23T15:24:28;9.60;99.90
9497;DHT22;4786;51.270;4.456;2022-11-23T15:27:03;9.50;99.90
9497;DHT22;4786;51.270;4.456;2022-11-23T15:29:35;9.50;99.90
9497;DHT22;4786;51.270;4.456;2022-11-23T15:32:03;9.50;99.90
9497;DHT22;4786;51.270;4.456;2022-11-23T15:34:44;9.40;99.90
9497;DHT22;4786;51.270;4.456;2022-11-23T15:37:11;9.50;99.90
9497;DHT22;4786;51.270;4.456;2022-11-23T15:39:37;9.50;99.90
9497;DHT22;4786;51.270;4.456;2022-11-23T15:42:04;9.60;99.90
9497;DHT22;4786;51.270;4.456;2022-11-23T15:44:30;9.50;99.90
9497;DHT22;4786;51.270;4.456;2022-11-23T15:46:59;9.50;99.90
9497;DHT22;4786;51.270;4.456;2022-11-23T15:49:26;9.50;99.90
9497;DHT22;4786;51.270;4.456;2022-11-23T15:51:58;9.60;99.90
9497;DHT22;4786;51.270;4.456;2022-11-23T15:54:34;9.50;99.90
9497;DHT22;4786;51.270;4.456;2022-11-23T15:57:01;9.50;99.90
9497;DHT22;4786;51.270;4.456;2022-11-23T15:59:46;9.60;99.90
9497;DHT22;4786;51.270;4.456;2022-11-23T16:02:16;9.40;99.90
9497;DHT22;4786;51.270;4.456;2022-11-23T16:04:42;9.40;99.90
9497;DHT22;4786;51.270;4.456;2022-11-23T16:07:25;9.40;99.90
9497;DHT22;4786;51.270;4.456;2022-11-23T16:10:16;9.30;99.90
9497;DHT22;4786;51.270;4.456;2022-11-23T16:12:53;9.30;99.90
9497;DHT22;4786;51.270;4.456;2022-11-23T16:17:55;9.20;99.90
9497;DHT22;4786;51.270;4.456;2022-11-23T16:20:26;9.30;99.90
9497;DHT22;4786;51.270;4.456;2022-11-23T16:22:54;9.30;99.90
9497;DHT22;4786;51.270;4.456;2022-11-23T16:25:32;9.20;99.90
9497;DHT22;4786;51.270;4.456;2022-11-23T16:28:03;9.20;99.90
9497;DHT22;4786;51.270;4.456;2022-11-23T16:30:37;9.20;99.90
9497;DHT22;4786;51.270;4.456;2022-11-23T16:33:04;9.20;99.90
9497;DHT22;4786;51.270;4.456;2022-11-23T16:35:30;9.20;99.90
9497;DHT22;4786;51.270;4.456;2022-11-23T16:37:56;9.20;99.90
9497;DHT22;4786;51.270;4.456;2022-11-23T16:40:22;9.30;99.90
9497;DHT22;4786;51.270;4.456;2022-11-23T16:42:51;9.10;99.90
9497;DHT22;4786;51.270;4.456;2022-11-23T16:45:18;9.10;99.90
9497;DHT22;4786;51.270;4.456;2022-11-23T16:48:01;9.20;99.90
9497;DHT22;4786;51.270;4.456;2022-11-23T16:50:29;9.10;99.90
9497;DHT22;4786;51.270;4.456;2022-11-23T16:52:55;9.10;99.90
9497;DHT22;4786;51.270;4.456;2022-11-23T16:55:20;9.00;99.90
9497;DHT22;4786;51.270;4.456;2022-11-23T16:57:47;9.00;99.90
9497;DHT22;4786;51.270;4.456;2022-11-23T17:00:18;9.00;99.90
9497;DHT22;4786;51.270;4.456;2022-11-23T17:02:44;9.10;99.90
9497;DHT22;4786;51.270;4.456;2022-11-23T17:05:17;9.10;99.90
9497;DHT22;4786;51.270;4.456;2022-11-23T17:07:43;9.10;99.90
9497;DHT22;4786;51.270;4.456;2022-11-23T17:10:10;9.20;99.90
9497;DHT22;4786;51.270;4.456;2022-11-23T17:12:36;9.00;99.90
9497;DHT22;4786;51.270;4.456;2022-11-23T17:15:04;9.00;99.90
9497;DHT22;4786;51.270;4.456;2022-11-23T17:17:30;9.00;99.90
9497;DHT22;4786;51.270;4.456;2022-11-23T17:19:55;8.90;99.90
9497;DHT22;4786;51.270;4.456;2022-11-23T17:22:21;9.00;99.90
9497;DHT22;4786;51.270;4.456;2022-11-23T17:24:48;9.00;99.90
9497;DHT22;4786;51.270;4.456;2022-11-23T17:27:17;8.90;99.90
9497;DHT22;4786;51.270;4.456;2022-11-23T17:29:45;8.90;99.90
9497;DHT22;4786;51.270;4.456;2022-11-23T17:32:13;8.90;99.90
9497;DHT22;4786;51.270;4.456;2022-11-23T17:34:39;8.90;99.90
9497;DHT22;4786;51.270;4.456;2022-11-23T17:37:05;8.90;99.90
9497;DHT22;4786;51.270;4.456;2022-11-23T17:39:32;8.90;99.90
9497;DHT22;4786;51.270;4.456;2022-11-23T17:41:58;8.90;99.90
9497;DHT22;4786;51.270;4.456;2022-11-23T17:44:23;8.90;99.90
9497;DHT22;4786;51.270;4.456;2022-11-23T17:46:50;8.80;99.90
9497;DHT22;4786;51.270;4.456;2022-11-23T17:49:18;8.90;99.90
9497;DHT22;4786;51.270;4.456;2022-11-23T17:51:45;8.90;99.90
9497;DHT22;4786;51.270;4.456;2022-11-23T17:54:11;8.90;99.90
9497;DHT22;4786;51.270;4.456;2022-11-23T17:56:37;9.10;99.90
9497;DHT22;4786;51.270;4.456;2022-11-23T17:59:04;8.80;99.90
9497;DHT22;4786;51.270;4.456;2022-11-23T18:01:31;8.80;99.90
9497;DHT22;4786;51.270;4.456;2022-11-23T18:03:57;8.80;99.90
9497;DHT22;4786;51.270;4.456;2022-11-23T18:06:26;8.80;99.90
9497;DHT22;4786;51.270;4.456;2022-11-23T18:08:52;8.70;99.90
9497;DHT22;4786;51.270;4.456;2022-11-23T18:11:20;9.10;99.90
9497;DHT22;4786;51.270;4.456;2022-11-23T18:13:47;8.80;99.90
9497;DHT22;4786;51.270;4.456;2022-11-23T18:16:16;8.80;99.90
9497;DHT22;4786;51.270;4.456;2022-11-23T18:18:42;8.80;99.90
9497;DHT22;4786;51.270;4.456;2022-11-23T18:21:08;8.80;99.90
9497;DHT22;4786;51.270;4.456;2022-11-23T18:23:35;8.80;99.90
9497;DHT22;4786;51.270;4.456;2022-11-23T18:26:05;8.90;99.90
9497;DHT22;4786;51.270;4.456;2022-11-23T18:28:37;8.90;99.90
9497;DHT22;4786;51.270;4.456;2022-11-23T18:31:03;9.10;99.90
9497;DHT22;4786;51.270;4.456;2022-11-23T18:33:32;9.00;99.90
9497;DHT22;4786;51.270;4.456;2022-11-23T18:35:57;9.00;99.90